Latest Weather Observations for Groote Eylandt Airport

IDD60801

Issued at 6:05 pm CST Saturday 1 November 2014 (issued every 30 minutes, with the page automatically refreshed every 10 minutes)

About weather observations | Map of weather stations | Latest weather observations for NT | Other Formats
Station Details ID: 014518 Name: GROOTE EYLANDT AIRPORT Lat: -13.97 Lon: 136.46 Height: 13.7 m
Data from the previous 72 hours. | See also: Recent months at Groote Eylandt Airport
Date/Time
CST
Temp
°C
App
Temp
°C
Dew
Point
Rel
Hum
%
Delta-T
°C
Wind Press
QNH
hPa
Press
MSL
hPa
Rain
since 9 am
mm
Dir
 
Spd
km/h
Gust
km/h
Spd
kts
Gust
kts
01/06:00pm 30.0 30.7 20.5 56 6.3 ENE 17 20 9 11 1009.1 1009.0 0.0
01/05:30pm 30.8 31.4 21.0 56 6.6 ENE 19 24 10 13 1008.7 1008.6 0.0
01/05:00pm 32.2 33.5 20.8 51 7.6 ENE 15 19 8 10 1008.5 1008.4 0.0
01/04:30pm 32.4 33.8 20.3 48 8.1 NNE 13 17 7 9 1008.3 1008.2 0.0
01/04:00pm 32.5 32.9 20.7 49 7.9 ENE 19 24 10 13 1008.4 1008.3 0.0
01/03:30pm 32.4 33.0 21.3 52 7.5 NNE 20 30 11 16 1008.3 1008.2 0.0
01/03:00pm 33.2 33.6 20.7 47 8.4 NE 19 26 10 14 1008.6 1008.5 0.0
01/02:30pm 33.1 33.5 20.9 48 8.2 N 20 28 11 15 1009.0 1008.9 0.0
01/02:00pm 33.0 33.2 20.5 47 8.3 ENE 20 33 11 18 1009.2 1009.1 0.0
01/01:30pm 33.6 34.0 20.7 46 8.7 ENE 19 26 10 14 1009.5 1009.4 0.0
01/01:00pm 33.1 33.5 20.9 48 8.2 N 20 30 11 16 1009.8 1009.7 0.0
01/12:30pm 32.3 32.7 19.9 48 8.2 N 17 28 9 15 1010.4 1010.3 0.0
01/12:00pm 32.4 32.9 20.0 48 8.2 NNE 17 32 9 17 1011.0 1010.9 0.0
01/11:30am 31.5 31.4 19.5 49 7.9 NNE 19 33 10 18 1011.3 1011.2 0.0
01/11:00am 31.3 30.0 19.0 48 8.0 NNE 24 35 13 19 1011.9 1011.8 0.0
01/10:30am 30.8 30.8 20.1 53 7.1 NNE 20 33 11 18 1012.1 1012.0 0.0
01/10:00am 30.3 30.2 19.6 52 7.0 NNE 19 26 10 14 1012.5 1012.4 0.0
01/09:30am 29.6 29.6 20.2 57 6.2 N 20 30 11 16 1012.7 1012.6 0.0
01/09:00am 29.3 29.2 19.9 57 6.2 NNE 20 26 11 14 1012.8 1012.7 -
01/08:30am 28.6 29.1 20.9 63 5.1 NE 19 28 10 15 1012.7 1012.6 -
01/08:00am 27.4 29.1 21.7 71 3.8 NE 15 24 8 13 1012.6 1012.5 -
01/07:30am 25.4 28.8 21.7 80 2.5 NNE 6 9 3 5 1012.4 1012.3 -
01/07:00am 24.0 27.8 20.9 83 2.0 ENE 2 6 1 3 1012.1 1012.0 -
01/06:30am 22.0 25.7 19.9 88 1.3 CALM 0 0 0 0 1011.5 1011.4 -
01/06:00am 21.2 24.8 19.7 91 1.0 CALM 0 0 0 0 1011.1 1011.0 -
01/05:30am 21.0 24.5 19.5 91 1.0 E 0 0 0 0 1010.6 1010.5 -
01/05:08am 21.3 24.8 19.6 90 1.1 CALM 0 0 0 0 1010.3 1010.2 -
01/05:00am 21.1 24.6 19.6 91 1.0 CALM 0 0 0 0 1010.2 1010.1 -
01/04:30am 21.2 24.8 19.8 92 0.9 CALM 0 0 0 0 1009.9 1009.8 -
01/04:12am 21.2 24.8 19.8 92 0.9 CALM 0 0 0 0 1009.7 1009.6 -
01/04:00am 21.7 25.5 20.2 91 1.0 CALM 0 0 0 0 1009.7 1009.6 -
01/03:30am 21.4 25.1 20.0 92 0.9 CALM 0 0 0 0 1009.6 1009.5 -
01/03:00am 22.0 25.1 20.3 90 1.1 E 4 6 2 3 1009.5 1009.4 -
01/02:30am 21.9 25.9 20.5 92 0.9 CALM 0 0 0 0 1009.5 1009.4 -
01/02:00am 22.0 24.6 20.5 91 1.0 E 7 7 4 4 1009.5 1009.4 -
01/01:30am 22.6 26.5 20.3 87 1.5 CALM 0 0 0 0 1009.6 1009.5 -
01/12:30am 24.1 27.3 21.6 86 1.7 NE 7 9 4 5 1010.0 1009.9 0.0
01/12:00am 24.4 27.6 21.7 85 1.8 ENE 7 9 4 5 1010.3 1010.2 0.0
 
Date/Time
CST
Temp
°C
App
Temp
°C
Dew
Point
Rel
Hum
%
Delta-T
°C
Wind Press
QNH
hPa
Press
MSL
hPa
Rain
since 9 am
mm
Dir
 
Spd
km/h
Gust
km/h
Spd
kts
Gust
kts
31/11:30pm 24.6 27.5 21.7 84 1.9 NE 9 11 5 6 1010.6 1010.5 0.0
31/11:00pm 25.1 28.0 21.8 82 2.2 ENE 9 11 5 6 1010.9 1010.8 0.0
31/10:30pm 25.4 28.4 21.9 81 2.3 ENE 9 11 5 6 1011.0 1010.9 0.0
31/10:00pm 25.6 28.5 21.7 79 2.6 NE 9 11 5 6 1010.8 1010.7 0.0
31/09:30pm 25.9 28.1 21.8 78 2.7 E 13 15 7 8 1010.5 1010.4 0.0
31/09:00pm 26.1 28.5 21.5 76 3.1 ENE 11 15 6 8 1010.1 1010.0 0.0
31/08:30pm 26.4 28.8 21.6 75 3.2 ENE 11 15 6 8 1009.6 1009.5 0.0
31/08:00pm 26.9 29.1 21.2 71 3.8 ENE 11 15 6 8 1009.0 1008.9 0.0
31/07:30pm 27.8 29.1 20.1 63 5.0 ENE 13 15 7 8 1008.7 1008.6 0.0
31/07:00pm 28.7 29.9 19.1 56 6.2 ENE 11 15 6 8 1008.6 1008.5 0.0
31/06:30pm 29.9 30.5 18.7 51 7.2 ENE 13 15 7 8 1008.3 1008.2 0.0
31/06:00pm 31.3 31.5 17.6 44 8.8 ENE 13 15 7 8 1008.2 1008.1 0.0
31/05:30pm 31.8 31.5 16.5 39 9.6 NE 13 15 7 8 1008.0 1007.9 0.0
31/05:00pm 32.3 31.7 16.6 39 9.9 NE 15 20 8 11 1007.9 1007.8 0.0
31/04:30pm 32.5 33.4 20.1 48 8.2 N 15 22 8 12 1007.8 1007.7 0.0
31/04:00pm 32.0 32.4 19.9 48 8.0 N 17 26 9 14 1007.8 1007.7 0.0
31/03:30pm 32.5 31.7 17.9 41 9.4 NE 19 28 10 15 1007.9 1007.8 0.0
31/03:00pm 33.4 34.5 21.2 48 8.2 NE 17 26 9 14 1008.1 1008.0 0.0
31/02:30pm 33.4 34.0 20.2 46 8.8 ENE 17 28 9 15 1008.2 1008.1 0.0
31/02:00pm 32.4 33.2 21.3 52 7.5 N 19 28 10 15 1008.5 1008.4 0.0
31/01:30pm 32.3 33.3 21.8 54 7.1 N 19 22 10 12 1008.8 1008.7 0.0
31/01:00pm 32.9 33.7 21.7 51 7.6 NNE 20 32 11 17 1009.2 1009.1 0.0
31/12:30pm 31.7 31.8 21.2 53 7.1 N 22 32 12 17 1009.9 1009.8 0.0
31/12:00pm 31.6 32.4 21.7 55 6.7 NNE 20 28 11 15 1010.7 1010.6 0.0
31/11:30am 30.9 31.9 21.1 56 6.6 ENE 17 28 9 15 1011.1 1011.0 0.0
31/11:00am 31.6 33.1 22.0 56 6.5 N 17 30 9 16 1011.4 1011.3 0.0
31/10:30am 30.4 31.5 21.2 58 6.2 NNE 17 24 9 13 1011.7 1011.6 0.0
31/10:00am 29.8 30.5 21.2 60 5.7 NNE 19 28 10 15 1011.9 1011.8 0.0
31/09:30am 28.6 30.3 21.6 66 4.7 NNE 15 24 8 13 1012.1 1012.0 0.0
31/09:00am 29.2 31.3 22.4 66 4.6 N 15 20 8 11 1011.9 1011.8 0.0
31/08:30am 27.8 28.7 21.6 69 4.1 NNE 19 26 10 14 1011.8 1011.7 0.0
31/08:00am 28.1 29.4 21.6 68 4.3 N 17 24 9 13 1011.4 1011.3 0.0
31/07:30am 26.8 30.5 23.3 81 2.4 N 9 15 5 8 1011.1 1011.0 0.0
31/07:00am 24.8 29.7 22.3 86 1.7 CALM 0 0 0 0 1010.6 1010.5 0.0
31/06:30am 23.1 26.3 21.2 89 1.2 ENE 6 7 3 4 1010.2 1010.1 0.0
31/06:00am 22.5 25.5 20.8 90 1.1 NNE 6 6 3 3 1009.9 1009.8 0.0
31/05:30am 21.9 25.8 20.4 91 1.0 CALM 0 7 0 4 1009.6 1009.5 0.0
31/05:00am 23.5 27.7 23.5 100 0.0 NNE 7 9 4 5 1009.1 1009.0 0.0
31/04:30am 21.5 24.4 20.7 95 0.5 ENE 6 7 3 4 1008.7 1008.6 0.0
31/04:00am 21.2 25.0 20.2 94 0.6 CALM 0 0 0 0 1008.4 1008.3 0.0
31/03:30am 21.5 25.3 20.1 92 0.9 CALM 0 0 0 0 1008.2 1008.1 0.0
31/03:00am 22.2 25.5 20.7 91 1.0 NE 4 6 2 3 1008.2 1008.1 0.0
31/02:30am 22.1 25.0 21.1 94 0.7 E 7 9 4 5 1008.3 1008.2 0.0
31/02:00am 22.3 24.9 20.4 89 1.2 E 7 7 4 4 1008.3 1008.2 0.0
31/01:30am 22.8 25.5 21.3 91 1.0 E 9 9 5 5 1008.6 1008.5 0.0
31/01:00am 22.7 26.0 20.8 89 1.2 E 4 6 2 3 1009.0 1008.9 0.0
31/12:30am 23.5 26.5 20.8 85 1.8 ENE 6 7 3 4 1009.4 1009.3 0.0
31/12:00am 23.4 26.4 20.9 86 1.6 ENE 6 7 3 4 1009.8 1009.7 0.0
 
Date/Time
CST
Temp
°C
App
Temp
°C
Dew
Point
Rel
Hum
%
Delta-T
°C
Wind Press
QNH
hPa
Press
MSL
hPa
Rain
since 9 am
mm
Dir
 
Spd
km/h
Gust
km/h
Spd
kts
Gust
kts
30/11:30pm 24.3 27.6 21.8 86 1.7 ENE 7 9 4 5 1010.1 1010.0 0.0
30/11:00pm 23.6 27.9 21.1 86 1.6 CALM 0 4 0 2 1010.3 1010.2 0.0
30/10:30pm 24.1 27.3 21.2 84 1.9 E 6 7 3 4 1010.6 1010.5 0.0
30/10:00pm 24.8 28.6 21.7 83 2.1 ESE 4 6 2 3 1010.6 1010.5 0.0
30/09:30pm 25.3 28.8 21.8 81 2.3 ESE 6 7 3 4 1010.3 1010.2 0.0
30/09:00pm 25.5 28.7 21.6 79 2.6 SE 7 9 4 5 1010.0 1009.9 0.0
30/08:30pm 26.4 29.6 21.6 75 3.2 E 7 9 4 5 1009.7 1009.6 0.0
30/08:00pm 27.2 30.2 21.9 73 3.6 ENE 9 11 5 6 1009.5 1009.4 0.0
30/07:30pm 27.5 30.3 21.5 70 4.0 NE 9 13 5 7 1009.2 1009.1 0.0
30/07:00pm 28.3 30.1 21.1 65 4.8 ENE 13 17 7 9 1009.0 1008.9 0.0
30/06:30pm 29.1 30.7 20.8 61 5.5 NE 13 19 7 10 1008.6 1008.5 0.0
30/06:00pm 30.4 31.4 20.3 54 6.7 NE 15 24 8 13 1008.3 1008.2 0.0
30/05:30pm 31.6 31.7 19.9 50 7.7 NNE 19 24 10 13 1008.1 1008.0 0.0
30/05:00pm 32.3 32.6 19.5 46 8.4 NE 17 24 9 13 1007.7 1007.6 0.0
30/04:30pm 33.5 33.2 19.2 43 9.4 NE 19 24 10 13 1007.5 1007.4 0.0
30/04:00pm 34.0 36.7 20.7 45 8.9 SW 7 17 4 9 1007.6 1007.5 0.0
30/03:30pm 34.2 36.6 20.9 45 9.0 S 9 17 5 9 1007.8 1007.7 0.0
30/03:00pm 33.6 35.9 20.7 46 8.7 SSW 9 17 5 9 1008.0 1007.9 0.0
30/02:30pm 33.0 34.7 20.9 49 8.1 SSW 13 20 7 11 1008.2 1008.1 0.0
30/02:00pm 32.9 34.7 20.4 47 8.3 S 11 17 6 9 1008.5 1008.4 0.0
30/01:30pm 33.9 35.4 20.6 45 8.9 S 13 20 7 11 1008.9 1008.8 0.0
30/01:00pm 33.1 34.5 20.3 47 8.5 SSE 13 20 7 11 1009.5 1009.4 0.0
30/12:30pm 32.8 33.6 21.3 50 7.8 S 19 30 10 16 1009.7 1009.6 0.0
30/12:00pm 32.2 35.6 22.0 55 6.9 SW 7 13 4 7 1010.5 1010.4 0.0
30/11:30am 31.2 32.8 22.2 58 6.1 W 17 26 9 14 1010.9 1010.8 0.0
30/11:00am 30.2 31.9 22.4 63 5.3 WNW 17 22 9 12 1011.3 1011.2 0.0
30/10:30am 29.8 31.2 22.5 65 5.0 NW 19 24 10 13 1011.6 1011.5 0.0
30/10:00am 30.4 33.4 22.6 63 5.3 WNW 11 17 6 9 1011.9 1011.8 0.0
30/09:30am 29.4 32.9 22.9 68 4.4 WNW 9 17 5 9 1012.0 1011.9 0.0
30/09:00am 28.3 31.0 22.8 72 3.7 NW 13 20 7 11 1011.6 1011.5 0.0
30/08:30am 28.1 31.1 22.6 72 3.7 NNW 11 17 6 9 1011.4 1011.3 0.0
30/08:00am 27.1 31.6 22.3 75 3.2 NNW 2 11 1 6 1011.1 1011.0 0.0
30/07:30am 26.1 31.2 22.6 81 2.4 CALM 0 0 0 0 1010.8 1010.7 0.0
30/07:18am 24.7 29.3 21.8 84 1.9 CALM 0 0 0 0 1010.7 1010.6 0.0
30/07:00am 23.1 26.1 20.8 87 1.5 E 6 7 3 4 1010.6 1010.5 0.0
30/06:30am 20.6 24.2 19.8 95 0.5 CALM 0 6 0 3 1010.3 1010.2 0.0
30/06:29am 20.6 24.2 19.8 95 0.5 CALM 0 6 0 3 1010.3 1010.2 0.0
30/06:00am 20.0 23.0 19.2 95 0.5 SE 2 7 1 4 1010.0 1009.9 0.0
30/05:30am 20.2 22.4 19.2 94 0.6 E 6 6 3 3 1009.8 1009.7 0.0
30/05:00am 20.5 23.1 19.3 93 0.8 E 4 6 2 3 1009.4 1009.3 0.0
30/04:30am 20.8 23.3 19.8 94 0.6 E 6 9 3 5 1009.4 1009.3 0.0
30/04:00am 20.9 24.7 20.1 95 0.5 CALM 0 0 0 0 1009.4 1009.3 0.0
30/03:30am 21.2 25.0 20.2 94 0.6 CALM 0 0 0 0 1009.4 1009.3 0.0
30/03:00am 21.9 26.0 20.7 93 0.8 CALM 0 0 0 0 1009.6 1009.5 0.0
30/02:30am 21.9 25.5 20.5 92 0.9 E 2 6 1 3 1009.7 1009.6 0.0
30/02:00am 22.3 26.4 20.8 91 1.0 CALM 0 0 0 0 1009.9 1009.8 0.0
30/01:30am 22.9 26.2 20.8 88 1.4 E 4 6 2 3 1010.1 1010.0 0.0
30/01:00am 23.7 26.2 21.0 85 1.8 E 9 11 5 6 1010.4 1010.3 0.0
30/12:30am 24.4 27.4 21.9 86 1.7 NE 9 11 5 6 1010.7 1010.6 0.0
30/12:00am 24.6 27.9 21.9 85 1.8 NE 7 9 4 5 1011.0 1010.9 0.0
 
Date/Time
CST
Temp
°C
App
Temp
°C
Dew
Point
Rel
Hum
%
Delta-T
°C
Wind Press
QNH
hPa
Press
MSL
hPa
Rain
since 9 am
mm
Dir
 
Spd
km/h
Gust
km/h
Spd
kts
Gust
kts
29/11:30pm 24.7 28.1 22.0 85 1.8 NE 7 11 4 6 1011.3 1011.2 0.0
29/11:00pm 24.5 27.8 21.8 85 1.8 NE 7 9 4 5 1011.5 1011.4 0.0
29/10:30pm 24.8 27.4 21.9 84 1.9 ENE 11 13 6 7 1011.6 1011.5 0.0
29/10:00pm 24.4 27.3 21.1 82 2.2 E 7 9 4 5 1011.6 1011.5 0.0
29/09:30pm 25.6 28.6 21.9 80 2.5 ENE 9 11 5 6 1011.5 1011.4 0.0
29/09:00pm 26.1 28.7 22.0 78 2.7 ENE 11 15 6 8 1011.4 1011.3 0.0
29/08:30pm 26.6 29.6 22.0 76 3.1 NE 9 11 5 6 1011.2 1011.1 0.0
29/08:00pm 27.1 29.8 22.1 74 3.4 NE 11 15 6 8 1011.1 1011.0 0.0
29/07:30pm 27.7 30.5 21.5 69 4.1 ENE 9 13 5 7 1010.8 1010.7 0.0
29/07:00pm 28.5 31.3 21.5 66 4.7 E 9 13 5 7 1010.7 1010.6 0.0
29/06:30pm 28.8 32.7 22.5 68 4.3 N 6 7 3 4 1010.5 1010.4 0.0

Other Formats:

Comma delimited format used in spreadsheet applications
http://www.bom.gov.au/fwo/IDD60801/IDD60801.94153.axf

JavaScript Object Notation format (JSON) in row-major order
http://www.bom.gov.au/fwo/IDD60801/IDD60801.94153.json